Kezdőlap
METAR-TAF:

METAR-TAF

Repülőterek :

Bowman Field

Louisville, Kentucky, Amerikai Egyesült Államok

földrajzi szélesség: 38-13-40N, földrajzi hosszúság: 085-39-49W, magasság: 166 m

Jelenlegi meteorológiai megfigyelések

A jelentés 19 perccel ezelõtt készült, 03:53 UTC
Északi szél 4 kt
Hőmérséklet 25°C
Páratartalom 61%
Légköri nyomás 1015 hPa
Látótávolság: 16.1 km
Derült ég

METAR: KLOU 150353Z AUTO 36004KT 10SM CLR 25/17 A2998 RMK AO2 SLP146 T02500172

Idő: 00:12 (04:12 UTC)


TAF: hiányzik

Meteorológiai megfigyelések és előrejelzések több, mint 4000 repülőtéren (METAR és TAF jelentéseket).

A térképen piros és sárga pontok jelzik az elérhető meteorológiai állomásokat.

Mozgassa az egeret a pont fölött, hogy megjelenjen az állomás neve.

Azután kattintson az időjárási megfigyelések és előrejelzések megtekintéséhez.

A térkép megváltoztatása: kattintson a fekete keresztel jelölt zöld gombra ráközelítéshez, a vonallal jelölt zöld gombra távolításhoz, vagy a zöld nyilakra a szomszédos térképek eléréséhez.


METAR-TAF: